createdAt,value
2022-08-19T00:00:24.375Z,8
2022-08-19T00:15:24.454Z,9
2022-08-19T00:30:24.968Z,9
2022-08-19T00:45:24.682Z,10
2022-08-19T01:00:24.245Z,10
2022-08-19T01:15:24.773Z,9
2022-08-19T01:30:24.483Z,10
2022-08-19T01:45:24.743Z,11
2022-08-19T02:00:24.647Z,10
2022-08-19T02:15:24.290Z,11
2022-08-19T02:30:24.782Z,11
2022-08-19T02:45:24.531Z,11
2022-08-19T03:00:24.356Z,12
2022-08-19T03:15:24.179Z,11
2022-08-19T03:30:23.928Z,11
2022-08-19T03:45:24.300Z,11
2022-08-19T04:00:24.133Z,11
2022-08-19T04:15:24.936Z,11
2022-08-19T04:30:24.701Z,11
2022-08-19T04:45:24.000Z,12
2022-08-19T05:00:24.433Z,11
2022-08-19T05:15:24.572Z,10
2022-08-19T05:30:33.809Z,9
2022-08-19T05:45:24.239Z,10
2022-08-19T06:00:24.836Z,10
2022-08-19T06:15:24.606Z,9
2022-08-19T06:30:23.886Z,8
2022-08-19T06:45:25.369Z,9
2022-08-19T07:00:24.059Z,8
2022-08-19T07:15:24.171Z,9
2022-08-19T07:30:26.183Z,7
2022-08-19T07:45:24.678Z,9
2022-08-19T08:00:25.017Z,8
2022-08-19T08:15:25.043Z,7
2022-08-19T08:30:24.396Z,6
2022-08-19T08:45:24.273Z,6
2022-08-19T09:00:24.157Z,6
2022-08-19T09:15:27.769Z,7
2022-08-19T09:30:23.929Z,6
2022-08-19T09:45:24.838Z,6
2022-08-19T10:15:28.877Z,6
2022-08-19T10:30:24.944Z,3
2022-08-19T10:45:04.895Z,3
2022-08-19T10:45:24.842Z,5
2022-08-19T11:00:24.707Z,6
2022-08-19T11:15:24.110Z,5
2022-08-19T11:30:24.835Z,6
2022-08-19T11:45:24.100Z,5
2022-08-19T12:00:24.937Z,5
2022-08-19T12:15:24.745Z,4
2022-08-19T12:30:24.990Z,4
2022-08-19T12:45:24.770Z,5
2022-08-19T13:00:24.491Z,4
2022-08-19T13:15:24.549Z,5
2022-08-19T13:30:24.711Z,4
2022-08-19T13:45:24.704Z,4
2022-08-19T14:00:24.998Z,4
2022-08-19T14:15:24.753Z,4
2022-08-19T14:30:24.758Z,4
2022-08-19T14:45:25.099Z,4
2022-08-19T15:00:24.238Z,4
2022-08-19T15:15:24.499Z,5
2022-08-19T15:30:24.221Z,4
2022-08-19T15:45:26.677Z,5
2022-08-19T16:00:24.060Z,4
2022-08-19T16:15:24.919Z,5
2022-08-19T16:30:24.146Z,5
2022-08-19T16:45:24.594Z,4
2022-08-19T17:00:24.737Z,5
2022-08-19T17:15:24.374Z,7
2022-08-19T17:30:24.957Z,7
2022-08-19T18:00:24.386Z,5
2022-08-19T18:15:23.542Z,2
2022-08-19T18:15:23.601Z,2
2022-08-19T18:30:24.756Z,3
2022-08-19T18:45:24.645Z,4
2022-08-19T19:00:24.436Z,5
2022-08-19T19:15:24.710Z,4
2022-08-19T19:30:23.902Z,3
2022-08-19T19:45:23.908Z,5
2022-08-19T20:00:24.674Z,5
2022-08-19T20:15:24.844Z,9
2022-08-19T20:30:24.402Z,7
2022-08-19T20:45:30.934Z,6
2022-08-19T21:00:23.848Z,6
2022-08-19T21:15:24.488Z,7
2022-08-19T21:30:24.789Z,8
2022-08-19T21:45:24.461Z,9
2022-08-19T22:00:23.640Z,14
2022-08-19T22:15:24.635Z,9
2022-08-19T22:30:24.531Z,9
2022-08-19T22:45:24.701Z,6
2022-08-19T23:00:24.650Z,7
2022-08-19T23:15:24.426Z,6
2022-08-19T23:30:24.037Z,12
2022-08-19T23:45:24.642Z,12
